This is the latest recevied weather packets stored in our database for station/object KK4KTV-13. If no packets are shown the sender has not sent any weather packets the latest 10 day(s).
| Time | Temp. | Humidity | Pressure | Rain* | Wind** | Luminosity | Snow |
|---|---|---|---|---|---|---|---|
| 1778102085 | 14.44° C | 89% | 1012.5 hPa | 0 mm | - | 46 W/m² | - |
| 1778101782 | 14.44° C | 88% | 1012.1 hPa | 0 mm | - | 52 W/m² | - |
| 1778101478 | 14.44° C | 87% | 1012.1 hPa | 0 mm | - | 42 W/m² | - |
| 1778101176 | 15° C | 86% | 1011.9 hPa | 0 mm | - | 46 W/m² | - |
| 1778100872 | 15° C | 86% | 1011.5 hPa | 0 mm | - | 77 W/m² | - |
| 1778100568 | 14.44° C | 86% | 1011.4 hPa | 0 mm | - | 109 W/m² | - |
| 1778100266 | 14.44° C | 86% | 1011.7 hPa | 0 mm | - | 82 W/m² | - |
| 1778099964 | 14.44° C | 87% | 1011.8 hPa | 0 mm | - | 86 W/m² | - |
| 1778099660 | 14.44° C | 85% | 1012.4 hPa | 0 mm | - | 36 W/m² | - |
| 1778099357 | 15° C | 85% | 1011.7 hPa | 0 mm | - | 86 W/m² | - |
| 1778099054 | 15° C | 85% | 1011.6 hPa | 0 mm | - | 120 W/m² | - |
| 1778098751 | 15° C | 86% | 1011.6 hPa | 0 mm | - | 164 W/m² | - |
| 1778098449 | 14.44° C | 86% | 1011.7 hPa | 0 mm | - | 238 W/m² | - |
| 1778098145 | 14.44° C | 88% | 1011.9 hPa | 0 mm | - | 110 W/m² | - |
| 1778097841 | 14.44° C | 87% | 1012 hPa | 0 mm | - | 102 W/m² | - |
| 1778097537 | 14.44° C | 87% | 1012.3 hPa | 0 mm | - | 122 W/m² | - |
| 1778097235 | 14.44° C | 87% | 1012.1 hPa | 0 mm | - | 119 W/m² | - |
| 1778096931 | 14.44° C | 86% | 1012.1 hPa | 0 mm | - | 89 W/m² | - |
| 1778096628 | 14.44° C | 85% | 1012.5 hPa | 0 mm | - | 66 W/m² | - |
| 1778096326 | 14.44° C | 85% | 1012.6 hPa | 0 mm | - | 72 W/m² | - |
| 1778096022 | 14.44° C | 85% | 1012.5 hPa | 0 mm | - | 72 W/m² | - |
| 1778095719 | 14.44° C | 85% | 1012.3 hPa | 0 mm | - | 100 W/m² | - |
| 1778095416 | 14.44° C | 85% | 1012.2 hPa | 0 mm | - | 105 W/m² | - |
| 1778089051 | 11.67° C | 98% | 1011.9 hPa | 0 mm | - | 196 W/m² | - |
| 1778088747 | 11.67° C | 98% | 1011.9 hPa | 0 mm | - | 196 W/m² | - |
* Rain latest hour (hover to see other rain measurements)
** Current wind speed in m/s (hover to see current wind gust speed)